Time;durP1;ratioP1;P1;durP2;ratioP2;P2;SDS_P1;SDS_P2;PMS_P1;PMS_P2;Temp;Humidity;BMP_temperature;BMP_pressure;BME280_temperature;BME280_humidity;BME280_pressure;Samples;Min_cycle;Max_cycle;Signal;HPM_P1;HPM_P2
2021/07/09 00:02:01;;;;;;;11.93;10.87;;;20.00;99.90;;;;;;4976770;28;20726;-64
2021/07/09 00:04:27;;;;;;;12.40;11.40;;;20.00;99.90;;;;;;4978456;28;20969;-65
2021/07/09 00:06:55;;;;;;;10.73;9.93;;;20.00;99.90;;;;;;4973034;28;20641;-64
2021/07/09 00:09:21;;;;;;;11.37;10.47;;;20.00;99.90;;;;;;4972150;28;20724;-65
2021/07/09 00:11:51;;;;;;;11.53;10.70;;;20.00;99.90;;;;;;4957445;28;20629;-65
2021/07/09 00:14:20;;;;;;;12.67;11.60;;;19.90;99.90;;;;;;4972536;28;20704;-65
2021/07/09 00:17:04;;;;;;;10.43;9.73;;;19.90;99.90;;;;;;4977446;28;20659;-65
2021/07/09 00:19:31;;;;;;;9.83;8.93;;;19.90;99.90;;;;;;4959471;28;20711;-64
2021/07/09 00:21:59;;;;;;;10.90;10.10;;;19.90;99.90;;;;;;4972593;28;21076;-65
2021/07/09 00:24:28;;;;;;;9.63;8.93;;;19.90;99.90;;;;;;4956163;28;20933;-65
2021/07/09 00:26:54;;;;;;;11.20;10.20;;;19.90;99.90;;;;;;4970131;28;20645;-68
2021/07/09 00:29:22;;;;;;;10.60;9.63;;;19.90;99.90;;;;;;4974126;28;20613;-66
2021/07/09 00:31:53;;;;;;;9.80;9.10;;;19.80;99.90;;;;;;4972051;28;20229;-64
2021/07/09 00:34:29;;;;;;;;;;;;;;;;;;;;;
2021/07/09 00:36:57;;;;;;;9.50;8.80;;;19.90;99.90;;;;;;4967443;28;20663;-64
2021/07/09 00:39:23;;;;;;;10.03;9.27;;;19.90;99.90;;;;;;4971791;28;20794;-64
2021/07/09 00:41:53;;;;;;;9.30;8.50;;;19.90;99.90;;;;;;4953593;28;20640;-65
2021/07/09 00:44:29;;;;;;;15.10;10.20;;;19.90;99.90;;;;;;4955864;28;20288;-65
2021/07/09 00:46:59;;;;;;;8.77;8.07;;;19.80;99.90;;;;;;4971478;28;20704;-65
2021/07/09 00:49:25;;;;;;;8.70;8.10;;;19.80;99.90;;;;;;4977478;28;20631;-65
2021/07/09 00:51:50;;;;;;;9.17;8.47;;;19.70;99.90;;;;;;4954092;28;20629;-67
2021/07/09 00:54:19;;;;;;;9.50;8.70;;;19.70;99.90;;;;;;4972490;28;20201;-65
2021/07/09 00:56:49;;;;;;;8.43;7.67;;;19.70;99.90;;;;;;4965636;28;20213;-67
2021/07/09 00:59:21;;;;;;;9.13;8.30;;;19.70;99.90;;;;;;4973841;28;20667;-65
2021/07/09 01:01:50;;;;;;;9.17;8.47;;;19.70;99.90;;;;;;4951932;28;21256;-65
2021/07/09 01:04:15;;;;;;;9.23;8.50;;;19.70;99.90;;;;;;4972043;28;20625;-65
2021/07/09 01:06:43;;;;;;;9.23;8.43;;;19.70;99.90;;;;;;4970771;28;20648;-67
2021/07/09 01:09:14;;;;;;;9.33;8.63;;;19.70;99.90;;;;;;4967995;28;20195;-66
2021/07/09 01:11:39;;;;;;;9.70;9.00;;;19.60;99.90;;;;;;4970463;28;20630;-66
2021/07/09 01:14:07;;;;;;;9.53;8.80;;;19.60;99.90;;;;;;4954188;28;20724;-67
2021/07/09 01:16:33;;;;;;;9.30;8.60;;;19.60;99.90;;;;;;4972603;28;20313;-65
2021/07/09 01:19:03;;;;;;;8.90;8.30;;;19.60;99.90;;;;;;4953017;28;21234;-65
2021/07/09 01:21:31;;;;;;;9.77;9.17;;;19.60;99.90;;;;;;4977550;28;20184;-65
2021/07/09 01:24:04;;;;;;;9.27;8.60;;;19.60;99.90;;;;;;4973118;28;20622;-65
2021/07/09 01:26:34;;;;;;;9.30;8.70;;;19.60;99.90;;;;;;4977670;28;20962;-65
2021/07/09 01:29:00;;;;;;;9.00;8.30;;;19.50;99.90;;;;;;4982307;28;20614;-66
2021/07/09 01:31:28;;;;;;;9.93;9.00;;;19.50;99.90;;;;;;4984284;28;20664;-65
2021/07/09 01:33:58;;;;;;;8.83;8.23;;;19.40;99.90;;;;;;4978073;28;20190;-65
2021/07/09 01:36:26;;;;;;;9.47;8.77;;;19.50;99.90;;;;;;4955568;28;21216;-66
2021/07/09 01:38:59;;;;;;;8.80;8.10;;;19.50;99.90;;;;;;4978065;28;20653;-66
2021/07/09 01:41:25;;;;;;;9.27;8.57;;;19.50;99.90;;;;;;4979995;28;20598;-67
2021/07/09 01:43:51;;;;;;;10.00;9.20;;;19.50;99.90;;;;;;4974358;28;20690;-65
2021/07/09 01:46:19;;;;;;;9.90;9.10;;;19.40;99.90;;;;;;4980725;28;21032;-66
2021/07/09 01:48:48;;;;;;;10.00;9.20;;;19.50;99.90;;;;;;4984006;28;20190;-66
2021/07/09 01:51:16;;;;;;;10.07;9.07;;;19.50;99.90;;;;;;4974220;28;20628;-65
2021/07/09 01:53:42;;;;;;;9.63;8.80;;;19.40;99.90;;;;;;4966955;28;20621;-66
2021/07/09 01:56:09;;;;;;;10.60;9.80;;;19.40;99.90;;;;;;4973547;28;21265;-65
2021/07/09 01:58:35;;;;;;;9.23;8.53;;;19.40;99.90;;;;;;4978238;28;20210;-66
2021/07/09 02:01:00;;;;;;;9.53;8.73;;;19.40;99.90;;;;;;4961828;28;20606;-66
2021/07/09 02:03:28;;;;;;;9.83;9.10;;;19.40;99.90;;;;;;4979002;28;20269;-66
2021/07/09 02:05:54;;;;;;;8.90;8.40;;;19.40;99.90;;;;;;4960151;28;20200;-66
2021/07/09 02:08:20;;;;;;;10.13;9.30;;;19.40;99.90;;;;;;4965581;28;20660;-66
2021/07/09 02:10:51;;;;;;;10.30;9.60;;;19.30;99.90;;;;;;4981664;28;20187;-66
2021/07/09 02:13:19;;;;;;;10.13;9.40;;;19.30;99.90;;;;;;4977380;28;20243;-67
2021/07/09 02:15:46;;;;;;;9.47;8.67;;;19.30;99.90;;;;;;4980273;28;20757;-66
2021/07/09 02:18:16;;;;;;;9.60;8.80;;;19.30;99.90;;;;;;4979081;28;20753;-65
2021/07/09 02:20:44;;;;;;;9.37;8.77;;;19.40;99.90;;;;;;4974315;28;21051;-63
2021/07/09 02:23:16;;;;;;;8.93;8.33;;;19.30;99.90;;;;;;4969492;28;20632;-64
2021/07/09 02:25:44;;;;;;;10.47;9.60;;;19.30;99.90;;;;;;4975111;28;20578;-64
2021/07/09 02:28:20;;;;;;;9.83;9.13;;;19.40;99.90;;;;;;4954877;28;20649;-64
2021/07/09 02:30:48;;;;;;;9.63;8.73;;;19.40;99.90;;;;;;4953118;28;20713;-65
2021/07/09 02:33:13;;;;;;;9.90;9.10;;;19.40;99.90;;;;;;4969385;28;20631;-65
2021/07/09 02:35:42;;;;;;;10.13;9.23;;;19.40;99.90;;;;;;4970385;28;20597;-65
2021/07/09 02:38:11;;;;;;;10.80;10.00;;;19.40;99.90;;;;;;4968083;28;20423;-65
2021/07/09 02:40:41;;;;;;;10.20;9.40;;;19.40;99.90;;;;;;4968686;28;20633;-66
2021/07/09 02:43:09;;;;;;;10.13;9.33;;;19.30;99.90;;;;;;4968570;28;20620;-64
2021/07/09 02:45:37;;;;;;;9.90;9.10;;;19.40;99.90;;;;;;4955898;28;20617;-65
2021/07/09 02:48:03;;;;;;;10.57;9.60;;;19.40;99.90;;;;;;4971156;28;20655;-64
2021/07/09 02:50:36;;;;;;;10.50;9.60;;;19.40;99.90;;;;;;4970646;28;20622;-65
2021/07/09 02:53:02;;;;;;;11.40;10.60;;;19.40;99.90;;;;;;4972243;28;20609;-64
2021/07/09 02:55:31;;;;;;;11.00;9.90;;;19.40;99.90;;;;;;4969183;28;20978;-64
2021/07/09 02:57:56;;;;;;;10.43;9.60;;;19.40;99.90;;;;;;4955072;28;20808;-64
2021/07/09 03:00:22;;;;;;;10.53;9.50;;;19.30;99.90;;;;;;4957225;28;20646;-64
2021/07/09 03:02:49;;;;;;;10.93;10.13;;;19.30;99.90;;;;;;4971397;28;20202;-65
2021/07/09 03:05:14;;;;;;;10.23;9.40;;;19.30;99.90;;;;;;4954123;28;20308;-64
2021/07/09 03:07:40;;;;;;;11.07;10.27;;;19.30;99.90;;;;;;4972727;28;21237;-65
2021/07/09 03:10:10;;;;;;;10.47;9.67;;;19.30;99.90;;;;;;4969882;28;20197;-64
2021/07/09 03:12:39;;;;;;;11.23;10.33;;;19.20;99.90;;;;;;4956852;28;20982;-65
2021/07/09 03:15:14;;;;;;;10.30;9.60;;;19.20;99.90;;;;;;4972663;28;20720;-65
2021/07/09 03:17:40;;;;;;;10.00;9.30;;;19.30;99.90;;;;;;4968498;28;20648;-65
2021/07/09 03:20:07;;;;;;;10.87;10.00;;;19.30;99.90;;;;;;4971442;28;20654;-66
2021/07/09 03:22:33;;;;;;;12.00;11.10;;;19.30;99.90;;;;;;4975122;28;20195;-64
2021/07/09 03:24:59;;;;;;;10.70;9.87;;;19.20;99.90;;;;;;4956336;28;20655;-64
2021/07/09 03:27:24;;;;;;;12.43;11.43;;;19.30;99.90;;;;;;4974723;28;20210;-66
2021/07/09 03:29:52;;;;;;;10.30;9.50;;;19.20;99.90;;;;;;4972684;28;20573;-65
2021/07/09 03:32:20;;;;;;;10.67;9.87;;;19.20;99.90;;;;;;4959876;28;20239;-65
2021/07/09 03:34:46;;;;;;;11.60;10.80;;;19.10;99.90;;;;;;4971638;28;20624;-66
2021/07/09 03:37:16;;;;;;;12.57;11.47;;;19.20;99.90;;;;;;4974516;28;20648;-66
2021/07/09 03:39:45;;;;;;;12.13;11.03;;;19.20;99.90;;;;;;4975368;28;20609;-65
2021/07/09 03:42:10;;;;;;;12.10;11.13;;;19.10;99.90;;;;;;4956353;28;20978;-65
2021/07/09 03:44:36;;;;;;;11.60;10.70;;;19.20;99.90;;;;;;4972386;28;20632;-66
2021/07/09 03:47:01;;;;;;;10.93;10.13;;;19.20;99.90;;;;;;4970440;23;20230;-64
2021/07/09 03:49:29;;;;;;;11.40;10.60;;;19.10;99.90;;;;;;4959649;28;20194;-65
2021/07/09 03:51:55;;;;;;;12.83;11.83;;;19.10;99.90;;;;;;4957866;28;20194;-66
2021/07/09 03:54:23;;;;;;;14.10;13.10;;;19.10;99.90;;;;;;4943443;28;20693;-65
2021/07/09 03:56:48;;;;;;;12.97;11.97;;;19.10;99.90;;;;;;4960290;28;20186;-66
2021/07/09 03:59:16;;;;;;;13.00;11.90;;;19.10;99.90;;;;;;4976371;28;20675;-65
2021/07/09 04:01:44;;;;;;;13.23;12.23;;;19.10;99.90;;;;;;4977739;28;20678;-65
2021/07/09 04:04:10;;;;;;;12.17;11.30;;;19.20;99.90;;;;;;4966253;28;21161;-66
2021/07/09 04:06:37;;;;;;;13.10;12.00;;;19.20;99.90;;;;;;4980152;28;20664;-66
2021/07/09 04:09:06;;;;;;;12.30;11.40;;;19.20;99.90;;;;;;4977772;28;20194;-66
2021/07/09 04:11:31;;;;;;;13.57;12.37;;;19.20;99.90;;;;;;4976784;28;20983;-65
2021/07/09 04:13:57;;;;;;;12.77;11.70;;;19.10;99.90;;;;;;4980013;28;20720;-66
2021/07/09 04:16:25;;;;;;;13.47;11.97;;;19.10;99.90;;;;;;4976483;28;20472;-66
2021/07/09 04:18:50;;;;;;;12.40;11.33;;;19.20;99.90;;;;;;4979158;28;20214;-65
2021/07/09 04:21:16;;;;;;;13.17;11.97;;;19.20;99.90;;;;;;4978601;28;20708;-65
2021/07/09 04:23:42;;;;;;;13.43;12.33;;;19.20;99.90;;;;;;4959717;28;20237;-66
2021/07/09 04:26:11;;;;;;;13.10;12.10;;;19.20;99.90;;;;;;4981701;28;20245;-66
2021/07/09 04:28:37;;;;;;;12.90;11.90;;;19.20;99.90;;;;;;4978509;28;20221;-66
2021/07/09 04:31:05;;;;;;;12.67;11.57;;;19.20;99.90;;;;;;4981720;28;20628;-66
2021/07/09 04:33:33;;;;;;;13.57;12.33;;;19.20;99.90;;;;;;4980996;28;20201;-65
2021/07/09 04:35:59;;;;;;;12.27;11.43;;;19.20;99.90;;;;;;4980256;28;20979;-65
2021/07/09 04:38:24;;;;;;;13.10;12.10;;;19.30;99.90;;;;;;4981521;28;20787;-65
2021/07/09 04:40:50;;;;;;;13.03;12.03;;;19.30;99.90;;;;;;4965057;28;20284;-66
2021/07/09 04:43:16;;;;;;;11.67;10.87;;;19.20;99.90;;;;;;4979547;28;20585;-65
2021/07/09 04:45:44;;;;;;;12.60;11.60;;;19.30;99.90;;;;;;4979448;28;20269;-65
2021/07/09 04:48:12;;;;;;;13.00;11.90;;;19.30;99.90;;;;;;4980079;28;20233;-65
2021/07/09 04:50:41;;;;;;;12.80;11.77;;;19.30;99.90;;;;;;4979252;28;20641;-66
2021/07/09 04:53:09;;;;;;;13.30;12.20;;;19.30;99.90;;;;;;4980423;28;20613;-65
2021/07/09 04:55:35;;;;;;;12.90;11.80;;;19.30;99.90;;;;;;4981257;28;20625;-65
2021/07/09 04:58:03;;;;;;;13.47;12.37;;;19.30;99.90;;;;;;4977583;28;21046;-66
2021/07/09 05:00:28;;;;;;;12.60;11.60;;;19.30;99.90;;;;;;4979101;28;20236;-65
2021/07/09 05:03:03;;;;;;;14.00;12.90;;;19.40;99.90;;;;;;4981126;28;20658;-64
2021/07/09 05:05:34;;;;;;;13.27;12.07;;;19.40;99.90;;;;;;4977037;28;20194;-64
2021/07/09 05:08:02;;;;;;;14.50;13.30;;;19.40;99.90;;;;;;4983436;28;20671;-63
2021/07/09 05:10:30;;;;;;;12.80;11.90;;;19.40;99.90;;;;;;4979631;28;21190;-65
2021/07/09 05:12:56;;;;;;;13.33;12.10;;;19.50;99.90;;;;;;4961793;28;20731;-63
2021/07/09 05:15:30;;;;;;;15.10;13.80;;;19.50;99.90;;;;;;4980168;28;20618;-63
2021/07/09 05:18:00;;;;;;;14.73;13.63;;;19.60;99.90;;;;;;4972556;28;21029;-64
2021/07/09 05:20:26;;;;;;;14.57;13.27;;;19.50;99.90;;;;;;4979124;28;20649;-64
2021/07/09 05:22:53;;;;;;;12.33;11.20;;;19.50;99.90;;;;;;4964759;28;21077;-63
2021/07/09 05:25:23;;;;;;;13.33;12.33;;;19.60;99.90;;;;;;4962048;28;20608;-64
2021/07/09 05:27:51;;;;;;;13.13;12.13;;;19.60;99.90;;;;;;4980914;28;20781;-64
2021/07/09 05:30:17;;;;;;;13.17;12.07;;;19.70;99.90;;;;;;4975892;28;20627;-64
2021/07/09 05:32:45;;;;;;;14.13;13.03;;;19.70;99.90;;;;;;4976867;28;20617;-63
2021/07/09 05:35:11;;;;;;;13.97;12.50;;;19.70;99.90;;;;;;4959033;28;20517;-64
2021/07/09 05:37:37;;;;;;;13.80;12.60;;;19.70;99.90;;;;;;4972777;28;20649;-64
2021/07/09 05:40:03;;;;;;;13.43;12.43;;;19.70;99.90;;;;;;4977449;28;21192;-64
2021/07/09 05:42:29;;;;;;;12.13;11.23;;;19.80;99.90;;;;;;4973489;28;20186;-64
2021/07/09 05:44:54;;;;;;;12.33;11.33;;;19.80;99.90;;;;;;4977185;28;21133;-64
2021/07/09 05:47:24;;;;;;;13.20;12.10;;;19.80;99.90;;;;;;4971120;28;20588;-64
2021/07/09 05:49:53;;;;;;;12.93;11.93;;;19.80;99.90;;;;;;4960463;28;20197;-64
2021/07/09 05:52:18;;;;;;;13.37;12.17;;;19.80;99.90;;;;;;4966735;28;21184;-64
2021/07/09 05:54:44;;;;;;;12.23;11.23;;;19.90;99.90;;;;;;4950989;28;20648;-63
2021/07/09 05:57:10;;;;;;;12.13;11.30;;;19.90;99.90;;;;;;4971371;28;20238;-63
2021/07/09 05:59:37;;;;;;;11.60;10.50;;;19.90;99.90;;;;;;4971769;28;20673;-64
2021/07/09 06:02:03;;;;;;;13.10;12.00;;;20.00;99.90;;;;;;4953861;28;20543;-63
2021/07/09 06:04:28;;;;;;;12.80;11.80;;;20.00;99.90;;;;;;4958243;28;20630;-63
2021/07/09 06:06:54;;;;;;;12.23;11.23;;;20.00;99.90;;;;;;4962546;28;20757;-64
2021/07/09 06:09:19;;;;;;;12.80;11.70;;;20.00;99.90;;;;;;4974575;28;20187;-63
2021/07/09 06:11:45;;;;;;;12.33;11.33;;;20.00;99.90;;;;;;4972338;28;20241;-64
2021/07/09 06:14:10;;;;;;;12.60;11.40;;;20.10;99.90;;;;;;4956481;28;20667;-64
2021/07/09 06:16:36;;;;;;;13.10;11.97;;;20.10;99.90;;;;;;4968098;28;20202;-64
2021/07/09 06:19:02;;;;;;;12.20;11.10;;;20.10;99.90;;;;;;4976743;28;20209;-64
2021/07/09 06:21:28;;;;;;;12.10;11.20;;;20.20;99.90;;;;;;4969673;28;20207;-64
2021/07/09 06:23:53;;;;;;;11.30;10.30;;;20.20;99.90;;;;;;4973455;28;20187;-64
2021/07/09 06:26:20;;;;;;;11.93;10.80;;;20.20;99.90;;;;;;4955951;28;20178;-63
2021/07/09 06:28:46;;;;;;;10.70;9.90;;;20.30;99.90;;;;;;4970126;28;20594;-63
2021/07/09 06:31:11;;;;;;;11.60;10.60;;;20.30;99.90;;;;;;4967360;28;20625;-63
2021/07/09 06:33:37;;;;;;;11.43;10.43;;;20.30;99.90;;;;;;4973809;28;20198;-64
2021/07/09 06:36:03;;;;;;;10.67;9.87;;;20.30;99.90;;;;;;4973869;28;20209;-64
2021/07/09 06:38:29;;;;;;;10.30;9.50;;;20.40;99.90;;;;;;4975890;28;20206;-63
2021/07/09 06:40:54;;;;;;;10.40;9.50;;;20.40;99.90;;;;;;4974246;28;20628;-63
2021/07/09 06:43:22;;;;;;;9.50;8.60;;;20.40;99.90;;;;;;4974309;28;20270;-63
2021/07/09 06:45:48;;;;;;;10.00;9.10;;;20.50;99.90;;;;;;4959848;28;20182;-63
2021/07/09 06:48:13;;;;;;;8.90;8.10;;;20.50;99.90;;;;;;4972530;28;20668;-63
2021/07/09 06:50:39;;;;;;;9.70;8.77;;;20.50;99.90;;;;;;4972683;28;20194;-63
2021/07/09 06:53:05;;;;;;;9.07;8.40;;;20.50;99.90;;;;;;4981126;28;20194;-63
2021/07/09 06:55:31;;;;;;;10.00;9.13;;;20.50;99.90;;;;;;4978521;28;20615;-62
2021/07/09 06:57:57;;;;;;;9.50;8.73;;;20.60;99.90;;;;;;4982059;28;20286;-63
2021/07/09 07:00:22;;;;;;;9.53;8.60;;;20.60;99.90;;;;;;4975687;28;20679;-62
2021/07/09 07:02:50;;;;;;;9.23;8.43;;;20.70;99.90;;;;;;4976463;28;20535;-62
2021/07/09 07:05:17;;;;;;;9.80;9.10;;;20.70;99.90;;;;;;4983291;28;20186;-63
2021/07/09 07:07:43;;;;;;;9.30;8.50;;;20.80;99.90;;;;;;4984210;28;20660;-63
2021/07/09 07:10:10;;;;;;;8.00;7.43;;;20.70;99.90;;;;;;4981242;28;20689;-63
2021/07/09 07:12:37;;;;;;;9.50;8.70;;;20.70;99.90;;;;;;4982013;28;20958;-63
2021/07/09 07:15:07;;;;;;;8.83;8.23;;;20.80;99.90;;;;;;4983048;28;20616;-63
2021/07/09 07:17:34;;;;;;;9.70;9.00;;;20.80;99.90;;;;;;4979380;28;20656;-63
2021/07/09 07:19:59;;;;;;;8.87;8.07;;;20.80;99.90;;;;;;4982732;28;20695;-63
2021/07/09 07:22:25;;;;;;;8.60;8.00;;;20.90;99.90;;;;;;4985830;28;20743;-63
2021/07/09 07:24:52;;;;;;;8.43;7.80;;;20.90;99.90;;;;;;4981550;28;20217;-63
2021/07/09 07:27:24;;;;;;;9.07;8.40;;;20.90;99.90;;;;;;4978919;28;20202;-63
2021/07/09 07:29:49;;;;;;;9.53;8.73;;;20.90;99.90;;;;;;4960919;28;20629;-63
2021/07/09 07:32:16;;;;;;;8.70;8.10;;;20.90;99.90;;;;;;4977585;28;20625;-63
2021/07/09 07:34:42;;;;;;;9.10;8.40;;;21.00;99.90;;;;;;4982668;28;20194;-63
2021/07/09 07:37:08;;;;;;;10.53;9.73;;;21.00;99.90;;;;;;4983127;28;20675;-63
2021/07/09 07:39:35;;;;;;;10.10;9.40;;;21.00;99.90;;;;;;4980095;28;21302;-63
2021/07/09 07:42:02;;;;;;;9.80;8.97;;;21.00;99.90;;;;;;4983227;28;20679;-63
2021/07/09 07:44:27;;;;;;;8.97;8.27;;;21.10;99.90;;;;;;4979519;28;20612;-63
2021/07/09 07:46:54;;;;;;;9.87;9.00;;;21.10;99.90;;;;;;4977313;28;20607;-63
2021/07/09 07:49:23;;;;;;;9.17;8.57;;;21.20;99.90;;;;;;4970306;28;20217;-63
2021/07/09 07:51:50;;;;;;;10.40;9.37;;;21.10;99.90;;;;;;4978345;28;20634;-65
2021/07/09 07:54:18;;;;;;;9.43;8.73;;;21.10;99.90;;;;;;4986158;28;20624;-66
2021/07/09 07:56:45;;;;;;;9.80;8.90;;;21.10;99.90;;;;;;4974733;28;20700;-63
2021/07/09 07:59:11;;;;;;;8.53;8.00;;;21.10;99.90;;;;;;4978007;28;20649;-63
2021/07/09 08:01:36;;;;;;;8.60;7.90;;;21.20;99.90;;;;;;4972065;28;20661;-63
2021/07/09 08:04:02;;;;;;;9.03;8.40;;;21.20;99.90;;;;;;4972276;28;20667;-63
2021/07/09 08:06:28;;;;;;;8.73;8.13;;;21.20;99.90;;;;;;4974686;28;21514;-63
2021/07/09 08:08:53;;;;;;;9.40;8.70;;;21.20;99.90;;;;;;4980001;28;20269;-63
2021/07/09 08:11:19;;;;;;;8.70;8.10;;;21.30;99.90;;;;;;4975328;28;20762;-63
2021/07/09 08:13:45;;;;;;;8.83;8.13;;;21.30;99.90;;;;;;4983281;28;20295;-63
2021/07/09 08:16:11;;;;;;;8.73;8.13;;;21.30;99.90;;;;;;4989999;28;20617;-65
2021/07/09 08:18:37;;;;;;;8.83;8.23;;;21.30;99.90;;;;;;4965864;28;20241;-63
2021/07/09 08:21:02;;;;;;;7.83;7.20;;;21.30;99.90;;;;;;4986653;28;20656;-65
2021/07/09 08:23:28;;;;;;;8.40;7.70;;;21.30;99.90;;;;;;4984416;28;20190;-63
2021/07/09 08:25:55;;;;;;;7.67;7.07;;;21.40;99.90;;;;;;4989763;28;20558;-62
2021/07/09 08:28:21;;;;;;;7.67;6.97;;;21.40;99.90;;;;;;4981693;28;20644;-65
2021/07/09 08:30:47;;;;;;;7.50;6.90;;;21.40;99.90;;;;;;4982605;28;20617;-63
2021/07/09 08:33:12;;;;;;;8.20;7.60;;;21.40;99.90;;;;;;4979877;28;20613;-63
2021/07/09 08:35:38;;;;;;;7.17;6.77;;;21.40;99.90;;;;;;4959726;28;20289;-63
2021/07/09 08:38:04;;;;;;;7.27;6.57;;;21.40;99.90;;;;;;4976272;28;20652;-63
2021/07/09 08:40:30;;;;;;;7.37;6.77;;;21.40;99.90;;;;;;4977770;28;20740;-63
2021/07/09 08:42:56;;;;;;;7.07;6.53;;;21.40;99.90;;;;;;4973931;28;20601;-65
2021/07/09 08:45:21;;;;;;;7.20;6.70;;;21.50;99.90;;;;;;4964362;28;21172;-63
2021/07/09 08:47:48;;;;;;;6.57;6.13;;;21.60;99.90;;;;;;4986236;28;20705;-63
2021/07/09 08:50:14;;;;;;;6.17;5.77;;;21.60;99.90;;;;;;4983288;28;20193;-63
2021/07/09 08:52:41;;;;;;;5.50;5.10;;;21.70;99.90;;;;;;4969332;28;20621;-63
2021/07/09 08:55:12;;;;;;;5.70;5.30;;;21.80;99.90;;;;;;4990093;28;20189;-65
2021/07/09 08:57:42;;;;;;;5.60;5.20;;;21.90;99.90;;;;;;4970613;28;21061;-63
2021/07/09 09:00:34;;;;;;;6.07;5.47;;;21.90;99.90;;;;;;4978833;28;20637;-63
2021/07/09 09:03:00;;;;;;;5.80;5.40;;;22.00;99.90;;;;;;4974824;28;20728;-63
2021/07/09 09:05:27;;;;;;;5.73;5.33;;;22.00;99.90;;;;;;4982387;28;20961;-63
2021/07/09 09:08:01;;;;;;;6.03;5.40;;;22.10;99.90;;;;;;4977995;28;21033;-65
2021/07/09 09:10:34;;;;;;;5.47;4.97;;;22.10;99.90;;;;;;4977960;28;20645;-63
2021/07/09 09:13:10;;;;;;;5.90;5.40;;;22.10;99.90;;;;;;4990039;28;20609;-63
2021/07/09 09:15:37;;;;;;;5.30;4.90;;;22.20;99.90;;;;;;4978982;28;20585;-63
2021/07/09 09:18:19;;;;;;;5.83;5.30;;;22.30;99.90;;;;;;4982466;28;20759;-63
2021/07/09 09:20:45;;;;;;;5.83;5.30;;;22.40;99.90;;;;;;4974763;28;20628;-63
2021/07/09 09:23:12;;;;;;;5.60;5.20;;;22.40;99.90;;;;;;4978531;28;20704;-63
2021/07/09 09:25:38;;;;;;;5.30;4.90;;;22.50;99.90;;;;;;4979411;28;20677;-63
2021/07/09 09:28:07;;;;;;;5.20;4.80;;;22.60;99.90;;;;;;4973649;28;21024;-62
2021/07/09 09:30:34;;;;;;;5.20;4.90;;;22.70;99.90;;;;;;4977636;28;20618;-62
2021/07/09 09:33:02;;;;;;;4.47;4.17;;;22.70;99.90;;;;;;4977431;28;21148;-63
2021/07/09 09:35:42;;;;;;;5.13;4.73;;;22.70;99.90;;;;;;4986798;28;21131;-63
2021/07/09 09:38:11;;;;;;;4.70;4.40;;;22.80;99.90;;;;;;4985482;28;20647;-62
2021/07/09 09:40:38;;;;;;;4.90;4.60;;;22.80;99.90;;;;;;4981203;28;21295;-62
2021/07/09 09:43:12;;;;;;;5.23;4.83;;;22.80;99.90;;;;;;4976439;28;20682;-63
2021/07/09 09:45:39;;;;;;;4.87;4.57;;;22.90;99.90;;;;;;4979286;28;20890;-62
2021/07/09 09:48:14;;;;;;;5.50;5.00;;;22.90;99.90;;;;;;4984608;23;20911;-63
2021/07/09 09:50:48;;;;;;;5.10;4.80;;;22.90;99.90;;;;;;4944227;28;20628;-63
2021/07/09 09:53:15;;;;;;;5.37;4.93;;;22.90;99.90;;;;;;4957338;28;20590;-64
2021/07/09 09:55:41;;;;;;;5.00;4.60;;;22.90;99.90;;;;;;4944164;28;20657;-62
2021/07/09 09:58:18;;;;;;;4.63;4.33;;;22.90;99.90;;;;;;4956600;28;20653;-65
2021/07/09 10:00:47;;;;;;;4.50;4.30;;;22.90;99.90;;;;;;4958349;28;20680;-65
2021/07/09 10:03:12;;;;;;;4.87;4.50;;;22.80;99.90;;;;;;4960671;28;20608;-65
2021/07/09 10:05:42;;;;;;;4.90;4.60;;;22.80;99.90;;;;;;4941840;28;21213;-65
2021/07/09 10:08:17;;;;;;;4.93;4.63;;;22.80;99.90;;;;;;4951933;28;20257;-62
2021/07/09 10:10:44;;;;;;;4.87;4.57;;;22.70;99.90;;;;;;4951872;28;21229;-62
2021/07/09 10:13:13;;;;;;;5.23;4.83;;;22.70;99.90;;;;;;4954972;28;20624;-63
2021/07/09 10:15:42;;;;;;;5.50;5.00;;;22.70;99.90;;;;;;4963039;28;20617;-62
2021/07/09 10:18:13;;;;;;;4.90;4.50;;;22.60;99.90;;;;;;4965868;28;20650;-63
2021/07/09 10:20:43;;;;;;;4.97;4.57;;;22.60;99.90;;;;;;4959403;28;20653;-65
2021/07/09 10:23:12;;;;;;;4.90;4.60;;;22.60;99.90;;;;;;4955838;28;21005;-64
2021/07/09 10:25:38;;;;;;;4.93;4.47;;;22.60;99.90;;;;;;4959338;28;20607;-65
2021/07/09 10:28:08;;;;;;;4.70;4.40;;;22.60;99.90;;;;;;4963223;28;20993;-68
2021/07/09 10:30:42;;;;;;;5.47;5.10;;;22.60;99.90;;;;;;4959501;28;20630;-65
2021/07/09 10:33:37;;;;;;;5.60;5.10;;;22.60;99.90;;;;;;4945463;28;20696;-62
2021/07/09 10:36:32;;;;;;;5.17;4.77;;;22.60;99.90;;;;;;4945598;28;20662;-65
2021/07/09 10:38:57;;;;;;;4.57;4.27;;;22.70;99.90;;;;;;4944927;28;20697;-65
2021/07/09 10:41:24;;;;;;;4.53;4.23;;;22.70;99.90;;;;;;4957686;28;20649;-63
2021/07/09 10:44:13;;;;;;;4.93;4.53;;;22.70;99.90;;;;;;4956431;28;20695;-63
2021/07/09 10:46:38;;;;;;;4.80;4.50;;;22.70;99.90;;;;;;4941000;28;20685;-63
2021/07/09 10:49:06;;;;;;;4.83;4.53;;;22.70;99.90;;;;;;4961205;28;21057;-63
2021/07/09 10:51:51;;;;;;;5.00;4.50;;;22.70;99.90;;;;;;4964597;28;20234;-63
2021/07/09 10:54:43;;;;;;;5.00;4.50;;;22.80;99.90;;;;;;4960542;28;20583;-63
2021/07/09 10:57:20;;;;;;;5.47;4.97;;;22.90;99.90;;;;;;4936676;28;20614;-63
2021/07/09 11:00:20;;;;;;;5.27;4.87;;;22.90;99.90;;;;;;4962059;28;20692;-63
2021/07/09 11:03:07;;;;;;;4.60;4.30;;;22.90;99.90;;;;;;4958187;28;20677;-63
2021/07/09 11:05:51;;;;;;;4.60;4.30;;;22.90;99.90;;;;;;4955809;28;20688;-63
2021/07/09 11:08:36;;;;;;;4.80;4.40;;;22.90;99.90;;;;;;4964951;28;21263;-63
2021/07/09 11:11:09;;;;;;;4.23;4.00;;;22.90;99.90;;;;;;4956866;28;20589;-65
2021/07/09 11:13:41;;;;;;;5.63;5.00;;;22.90;99.90;;;;;;4950032;28;20669;-64
2021/07/09 11:16:23;;;;;;;5.00;4.70;;;22.90;99.90;;;;;;4946436;28;22313;-64
2021/07/09 11:18:50;;;;;;;5.60;5.20;;;22.90;99.90;;;;;;4950341;28;20646;-63
2021/07/09 11:21:36;;;;;;;5.20;4.70;;;22.80;99.90;;;;;;4948811;28;20622;-64
2021/07/09 11:24:20;;;;;;;4.80;4.43;;;22.80;99.90;;;;;;4945515;28;20654;-63
2021/07/09 11:26:47;;;;;;;6.17;5.67;;;22.80;99.90;;;;;;4934119;28;21283;-63
2021/07/09 11:29:41;;;;;;;5.13;4.83;;;22.80;99.90;;;;;;4951848;28;20750;-62
2021/07/09 11:32:15;;;;;;;5.23;4.83;;;22.80;99.90;;;;;;4944577;28;20633;-62
2021/07/09 11:34:51;;;;;;;5.77;5.27;;;22.70;99.90;;;;;;4947791;28;20625;-63
2021/07/09 11:37:21;;;;;;;5.10;4.80;;;22.70;99.90;;;;;;4949051;28;20633;-63
2021/07/09 11:39:52;;;;;;;5.67;5.27;;;22.70;99.90;;;;;;4938772;28;21477;-63
2021/07/09 11:42:20;;;;;;;5.27;4.87;;;22.70;99.90;;;;;;4958375;28;20622;-63
2021/07/09 11:44:53;;;;;;;6.30;5.70;;;22.70;99.90;;;;;;4964381;28;20609;-62
2021/07/09 11:47:29;;;;;;;5.30;4.90;;;22.70;99.90;;;;;;4946796;28;20685;-63
2021/07/09 11:50:00;;;;;;;6.20;5.70;;;22.70;99.90;;;;;;4942826;28;20679;-63
2021/07/09 11:52:38;;;;;;;5.57;5.07;;;22.70;99.90;;;;;;4965621;28;20593;-63
2021/07/09 11:55:07;;;;;;;5.60;5.20;;;22.60;99.90;;;;;;4960915;28;20680;-63
2021/07/09 11:57:36;;;;;;;5.80;5.30;;;22.60;99.90;;;;;;4957483;28;20693;-63
2021/07/09 12:00:12;;;;;;;6.23;5.70;;;22.60;99.90;;;;;;4948816;28;20662;-63
2021/07/09 12:02:40;;;;;;;6.23;5.83;;;22.60;99.90;;;;;;4941053;28;20629;-63
2021/07/09 12:05:11;;;;;;;6.13;5.53;;;22.60;99.90;;;;;;4968002;28;20727;-63
2021/07/09 12:07:38;;;;;;;6.57;5.37;;;22.60;99.90;;;;;;4958269;28;20612;-63
2021/07/09 12:10:16;;;;;;;6.07;5.77;;;22.60;99.90;;;;;;4944352;28;21225;-63
2021/07/09 12:12:44;;;;;;;6.70;6.10;;;22.60;99.90;;;;;;4955471;28;20745;-62
2021/07/09 12:15:19;;;;;;;8.23;6.20;;;22.60;99.90;;;;;;4946136;28;20674;-63
2021/07/09 12:17:54;;;;;;;6.47;6.00;;;22.60;99.90;;;;;;4953545;28;21033;-63
2021/07/09 12:20:23;;;;;;;6.70;6.20;;;22.60;99.90;;;;;;4943981;28;20707;-63
2021/07/09 12:22:57;;;;;;;6.43;6.00;;;22.60;99.90;;;;;;4956269;28;21116;-63
2021/07/09 12:25:27;;;;;;;6.40;6.00;;;22.60;99.90;;;;;;4955100;28;21027;-63
2021/07/09 12:27:58;;;;;;;6.70;6.10;;;22.60;99.90;;;;;;4955461;28;21228;-63
2021/07/09 12:30:27;;;;;;;7.03;6.53;;;22.60;99.90;;;;;;4936990;28;20733;-63
2021/07/09 12:32:58;;;;;;;6.13;5.70;;;22.50;99.90;;;;;;4950972;28;20650;-63
2021/07/09 12:35:25;;;;;;;6.97;6.37;;;22.50;99.90;;;;;;4953956;28;20621;-63
2021/07/09 12:38:01;;;;;;;6.50;6.10;;;22.50;99.90;;;;;;4950695;28;20626;-64
2021/07/09 12:40:29;;;;;;;6.70;6.20;;;22.50;99.90;;;;;;4937129;28;20705;-65
2021/07/09 12:43:11;;;;;;;6.60;6.20;;;22.50;99.90;;;;;;4950432;28;20697;-64
2021/07/09 12:45:37;;;;;;;6.97;6.47;;;22.50;99.90;;;;;;4936932;28;21235;-64
2021/07/09 12:48:03;;;;;;;7.30;6.90;;;22.50;99.90;;;;;;4951821;28;20650;-65
2021/07/09 12:50:32;;;;;;;6.50;6.10;;;22.50;99.90;;;;;;4940995;28;20650;-64